createdAt,value
2019-04-24T00:02:44.079Z,2.77
2019-04-24T00:07:46.665Z,2.40
2019-04-24T00:13:13.708Z,2.43
2019-04-24T00:18:30.958Z,2.70
2019-04-24T00:28:28.033Z,2.53
2019-04-24T00:34:03.626Z,2.70
2019-04-24T00:38:48.150Z,2.90
2019-04-24T00:48:55.505Z,2.63
2019-04-24T00:54:05.552Z,2.83
2019-04-24T01:05:07.487Z,2.50
2019-04-24T01:25:37.701Z,3.10
2019-04-24T01:31:13.491Z,2.70
2019-04-24T01:36:29.680Z,2.83
2019-04-24T01:41:48.864Z,2.80
2019-04-24T01:46:29.495Z,2.90
2019-04-24T01:51:39.795Z,3.00
2019-04-24T02:01:52.851Z,2.80
2019-04-24T02:07:20.702Z,2.90
2019-04-24T02:12:29.057Z,3.23
2019-04-24T02:17:28.925Z,3.43
2019-04-24T02:22:42.199Z,3.00
2019-04-24T02:27:45.670Z,3.40
2019-04-24T02:33:47.590Z,3.17
2019-04-24T02:49:04.312Z,3.10
2019-04-24T02:53:40.192Z,3.70
2019-04-24T03:09:04.798Z,3.17
2019-04-24T03:14:37.741Z,3.23
2019-04-24T03:29:54.429Z,3.73
2019-04-24T03:35:15.333Z,2.87
2019-04-24T03:40:50.810Z,3.57
2019-04-24T04:01:19.307Z,3.40
2019-04-24T04:06:41.221Z,3.50
2019-04-24T04:11:45.315Z,2.87
2019-04-24T04:22:01.198Z,2.93
2019-04-24T04:32:35.348Z,4.20
2019-04-24T04:42:52.222Z,3.53
2019-04-24T04:47:49.071Z,3.30
2019-04-24T04:58:35.503Z,3.73
2019-04-24T05:09:13.184Z,4.07
2019-04-24T05:14:04.216Z,3.63
2019-04-24T05:19:06.874Z,3.67
2019-04-24T05:29:03.096Z,3.50
2019-04-24T05:39:27.454Z,4.00
2019-04-24T05:49:44.445Z,3.83
2019-04-24T05:55:06.198Z,4.13
2019-04-24T06:05:25.637Z,3.80
2019-04-24T06:10:47.826Z,3.87
2019-04-24T06:32:11.649Z,3.67
2019-04-24T06:42:31.087Z,3.67
2019-04-24T06:47:54.218Z,3.90
2019-04-24T06:52:46.496Z,2.83
2019-04-24T07:03:14.425Z,3.00
2019-04-24T07:08:47.036Z,3.10
2019-04-24T07:14:09.855Z,2.70
2019-04-24T07:19:36.314Z,3.07
2019-04-24T07:24:41.415Z,2.47
2019-04-24T07:29:53.073Z,2.33
2019-04-24T07:35:02.110Z,2.80
2019-04-24T07:45:11.357Z,2.77
2019-04-24T07:50:48.462Z,2.70
2019-04-24T07:55:27.576Z,2.50
2019-04-24T08:05:32.140Z,2.37
2019-04-24T08:11:12.721Z,2.00
2019-04-24T08:16:15.409Z,2.40
2019-04-24T08:21:25.758Z,2.57
2019-04-24T08:26:34.922Z,2.50
2019-04-24T08:37:11.008Z,2.17
2019-04-24T08:42:27.085Z,2.50
2019-04-24T08:47:36.058Z,2.73
2019-04-24T09:03:34.843Z,2.97
2019-04-24T09:08:47.824Z,2.60
2019-04-24T09:14:10.346Z,2.60
2019-04-24T09:19:11.195Z,2.70
2019-04-24T09:24:37.736Z,2.63
2019-04-24T09:29:49.283Z,2.90
2019-04-24T09:34:45.326Z,2.87
2019-04-24T09:40:29.120Z,2.90
2019-04-24T09:56:03.666Z,2.45
2019-04-24T10:01:48.219Z,2.42
2019-04-24T10:07:12.837Z,1.77
2019-04-24T10:12:17.799Z,2.00
2019-04-24T10:22:19.797Z,2.25
2019-04-24T10:27:34.391Z,2.15
2019-04-24T10:32:57.915Z,1.77
2019-04-24T10:38:27.033Z,1.70
2019-04-24T10:43:39.025Z,1.77
2019-04-24T10:49:06.638Z,2.10
2019-04-24T10:54:02.991Z,1.70
2019-04-24T10:59:24.941Z,2.17
2019-04-24T11:10:36.695Z,1.67
2019-04-24T11:15:52.656Z,1.80
2019-04-24T11:21:31.011Z,1.70
2019-04-24T11:26:18.553Z,1.62
2019-04-24T11:31:31.927Z,1.77
2019-04-24T11:37:00.986Z,1.52
2019-04-24T11:42:02.244Z,1.72
2019-04-24T11:47:38.718Z,1.95
2019-04-24T12:03:40.684Z,2.33
2019-04-24T12:19:12.416Z,2.10
2019-04-24T12:24:10.581Z,2.20
2019-04-24T12:29:29.943Z,3.02
2019-04-24T12:34:44.171Z,2.20
2019-04-24T12:39:53.529Z,2.17
2019-04-24T12:44:50.388Z,1.80
2019-04-24T12:50:03.443Z,1.82
2019-04-24T12:55:25.190Z,2.20
2019-04-24T13:11:22.863Z,2.27
2019-04-24T13:17:05.138Z,2.65
2019-04-24T13:21:32.791Z,2.40
2019-04-24T13:27:24.906Z,2.50
2019-04-24T13:32:44.836Z,2.95
2019-04-24T13:43:03.718Z,2.47
2019-04-24T13:58:33.359Z,3.15
2019-04-24T14:08:45.522Z,3.37
2019-04-24T14:13:49.265Z,3.22
2019-04-24T14:18:59.851Z,3.37
2019-04-24T14:28:58.061Z,3.60
2019-04-24T14:34:09.577Z,2.67
2019-04-24T14:39:21.089Z,2.87
2019-04-24T14:44:56.093Z,2.60
2019-04-24T14:55:02.946Z,2.70
2019-04-24T15:00:17.088Z,2.70
2019-04-24T15:10:14.186Z,2.75
2019-04-24T15:15:21.636Z,2.98
2019-04-24T15:20:18.514Z,2.40
2019-04-24T15:25:43.202Z,2.72
2019-04-24T15:30:52.109Z,2.20
2019-04-24T15:35:53.980Z,2.85
2019-04-24T15:41:06.511Z,2.50
2019-04-24T15:46:05.186Z,2.40
2019-04-24T15:51:16.463Z,2.02
2019-04-24T15:55:51.267Z,2.40
2019-04-24T16:01:25.719Z,1.90
2019-04-24T16:06:22.925Z,2.30
2019-04-24T16:11:27.212Z,2.15
2019-04-24T16:22:07.430Z,2.60
2019-04-24T16:37:29.275Z,2.22
2019-04-24T16:43:09.382Z,1.92
2019-04-24T16:53:19.546Z,1.95
2019-04-24T17:03:22.563Z,2.12
2019-04-24T17:08:30.110Z,1.62
2019-04-24T17:13:33.673Z,1.70
2019-04-24T17:23:44.601Z,1.77
2019-04-24T17:34:02.624Z,1.98
2019-04-24T17:38:41.126Z,2.83
2019-04-24T17:44:24.300Z,1.70
2019-04-24T17:49:26.462Z,1.50
2019-04-24T17:54:26.610Z,1.17
2019-04-24T17:59:09.213Z,0.70
